Time;durP1;ratioP1;P1;durP2;ratioP2;P2;SDS_P1;SDS_P2;PMS_P1;PMS_P2;Temp;Humidity;BMP_temperature;BMP_pressure;BME280_temperature;BME280_humidity;BME280_pressure;Samples;Min_cycle;Max_cycle;Signal;HPM_P1;HPM_P2
2019/07/22 00:06:11;;;;;;;9.4;8.1;;;;;;;;;;;;;
2019/07/22 00:08:51;;;;;;;9.5;8.6;;;;;;;;;;;;;
2019/07/22 00:11:28;;;;;;;10.1;7.7;;;;;;;;;;;;;
2019/07/22 00:14:02;;;;;;;9.6;8.3;;;;;;;;;;;;;
2019/07/22 00:16:40;;;;;;;9.2;8.2;;;;;;;;;;;;;
2019/07/22 00:19:22;;;;;;;10;8.3;;;;;;;;;;;;;
2019/07/22 00:22:07;;;;;;;9.4;8.5;;;;;;;;;;;;;
2019/07/22 00:24:42;;;;;;;9.4;8.5;;;;;;;;;;;;;
2019/07/22 00:27:20;;;;;;;12;8.8;;;;;;;;;;;;;
2019/07/22 00:29:59;;;;;;;9.8;8.5;;;;;;;;;;;;;
2019/07/22 00:32:34;;;;;;;10;8.5;;;;;;;;;;;;;
2019/07/22 00:35:09;;;;;;;10.2;8.7;;;;;;;;;;;;;
2019/07/22 00:37:45;;;;;;;10.4;9.2;;;;;;;;;;;;;
2019/07/22 00:40:27;;;;;;;10.9;9.3;;;;;;;;;;;;;
2019/07/22 00:43:12;;;;;;;10.7;8.7;;;;;;;;;;;;;
2019/07/22 00:45:47;;;;;;;12.3;8.8;;;;;;;;;;;;;
2019/07/22 00:48:29;;;;;;;10.2;8.5;;;;;;;;;;;;;
2019/07/22 00:51:18;;;;;;;9.1;8.1;;;;;;;;;;;;;
2019/07/22 00:53:56;;;;;;;8.7;7.9;;;;;;;;;;;;;
2019/07/22 00:56:34;;;;;;;8.7;7.6;;;;;;;;;;;;;
2019/07/22 00:59:14;;;;;;;11.6;8.1;;;;;;;;;;;;;
2019/07/22 01:01:56;;;;;;;10.9;8.7;;;;;;;;;;;;;
2019/07/22 01:07:08;;;;;;;9.9;8.9;;;;;;;;;;;;;
2019/07/22 01:09:42;;;;;;;12.1;9.2;;;;;;;;;;;;;
2019/07/22 01:12:19;;;;;;;11.3;9.5;;;;;;;;;;;;;
2019/07/22 01:14:56;;;;;;;11.4;9.1;;;;;;;;;;;;;
2019/07/22 01:17:40;;;;;;;11.6;9.2;;;;;;;;;;;;;
2019/07/22 01:20:12;;;;;;;10.9;9.5;;;;;;;;;;;;;
2019/07/22 01:22:50;;;;;;;10.6;9.5;;;;;;;;;;;;;
2019/07/22 01:25:24;;;;;;;10.9;9.3;;;;;;;;;;;;;
2019/07/22 01:28:01;;;;;;;16.8;9.6;;;;;;;;;;;;;
2019/07/22 01:30:40;;;;;;;12.1;9;;;;;;;;;;;;;
2019/07/22 01:33:14;;;;;;;11.4;9.5;;;;;;;;;;;;;
2019/07/22 01:36:09;;;;;;;11.7;9.3;;;;;;;;;;;;;
2019/07/22 01:38:48;;;;;;;10.5;9.1;;;;;;;;;;;;;
2019/07/22 01:41:26;;;;;;;10.8;9.3;;;;;;;;;;;;;
2019/07/22 01:44:06;;;;;;;11.5;9.2;;;;;;;;;;;;;
2019/07/22 01:46:48;;;;;;;10.2;9.1;;;;;;;;;;;;;
2019/07/22 01:49:25;;;;;;;10.7;9;;;;;;;;;;;;;
2019/07/22 01:52:00;;;;;;;11;9.7;;;;;;;;;;;;;
2019/07/22 01:54:41;;;;;;;15;9.8;;;;;;;;;;;;;
2019/07/22 01:57:20;;;;;;;10.5;9.4;;;;;;;;;;;;;
2019/07/22 01:59:59;;;;;;;10.2;8.9;;;;;;;;;;;;;
2019/07/22 02:02:38;;;;;;;11.6;9.3;;;;;;;;;;;;;
2019/07/22 02:05:13;;;;;;;11.2;9.6;;;;;;;;;;;;;
2019/07/22 02:07:51;;;;;;;12.4;9.9;;;;;;;;;;;;;
2019/07/22 02:10:25;;;;;;;12.3;9.8;;;;;;;;;;;;;
2019/07/22 02:13:03;;;;;;;15.3;9.9;;;;;;;;;;;;;
2019/07/22 02:15:40;;;;;;;10.9;9.8;;;;;;;;;;;;;
2019/07/22 02:18:13;;;;;;;10.9;9.8;;;;;;;;;;;;;
2019/07/22 02:20:46;;;;;;;13.7;9.9;;;;;;;;;;;;;
2019/07/22 02:23:20;;;;;;;10.5;9.4;;;;;;;;;;;;;
2019/07/22 02:26:07;;;;;;;13.9;9.6;;;;;;;;;;;;;
2019/07/22 02:28:43;;;;;;;10.9;9.5;;;;;;;;;;;;;
2019/07/22 02:31:18;;;;;;;10.1;9.1;;;;;;;;;;;;;
2019/07/22 02:33:57;;;;;;;10.2;9.1;;;;;;;;;;;;;
2019/07/22 02:36:55;;;;;;;11.4;9.7;;;;;;;;;;;;;
2019/07/22 02:39:30;;;;;;;10.7;9.6;;;;;;;;;;;;;
2019/07/22 02:42:15;;;;;;;11;9.8;;;;;;;;;;;;;
2019/07/22 02:44:53;;;;;;;12.1;9.4;;;;;;;;;;;;;
2019/07/22 02:47:28;;;;;;;14.2;9.5;;;;;;;;;;;;;
2019/07/22 02:50:13;;;;;;;11.6;9.5;;;;;;;;;;;;;
2019/07/22 02:52:57;;;;;;;10.7;9.6;;;;;;;;;;;;;
2019/07/22 02:55:36;;;;;;;11.5;9.7;;;;;;;;;;;;;
2019/07/22 02:58:13;;;;;;;10.3;9.2;;;;;;;;;;;;;
2019/07/22 03:00:52;;;;;;;10.5;9.4;;;;;;;;;;;;;
2019/07/22 03:03:27;;;;;;;10.5;9.4;;;;;;;;;;;;;
2019/07/22 03:06:08;;;;;;;10.4;9.3;;;;;;;;;;;;;
2019/07/22 03:08:42;;;;;;;11;9.8;;;;;;;;;;;;;
2019/07/22 03:11:20;;;;;;;11.5;9.8;;;;;;;;;;;;;
2019/07/22 03:13:56;;;;;;;13.1;9.4;;;;;;;;;;;;;
2019/07/22 03:16:31;;;;;;;12.7;9.2;;;;;;;;;;;;;
2019/07/22 03:21:47;;;;;;;12;9.4;;;;;;;;;;;;;
2019/07/22 03:24:22;;;;;;;11.7;9.1;;;;;;;;;;;;;
2019/07/22 03:27:02;;;;;;;12.4;9.5;;;;;;;;;;;;;
2019/07/22 03:29:37;;;;;;;12.3;9.2;;;;;;;;;;;;;
2019/07/22 03:32:13;;;;;;;10.6;9.5;;;;;;;;;;;;;
2019/07/22 03:40:21;;;;;;;10.9;9.4;;;;;;;;;;;;;
2019/07/22 03:43:06;;;;;;;12.9;10.5;;;;;;;;;;;;;
2019/07/22 03:45:44;;;;;;;11.8;10.6;;;;;;;;;;;;;
2019/07/22 03:48:20;;;;;;;14.7;11.3;;;;;;;;;;;;;
2019/07/22 03:51:10;;;;;;;11.9;10.7;;;;;;;;;;;;;
2019/07/22 03:53:48;;;;;;;11.9;9.8;;;;;;;;;;;;;
2019/07/22 03:56:22;;;;;;;12.6;11.3;;;;;;;;;;;;;
2019/07/22 03:59:04;;;;;;;12.9;11.2;;;;;;;;;;;;;
2019/07/22 04:06:33;;;;;;;12.1;10.8;;;;;;;16.82;86.94727;946.7004;;;;
2019/07/22 04:10:02;;;;;;;13.7;10.5;;;;;;;17.23;85.32324;946.6191;;;;
2019/07/22 04:13:25;;;;;;;11.2;10;;;;;;;17.15;84.95996;946.6439;;;;
2019/07/22 04:16:43;;;;;;;10.6;9.5;;;;;;;17.14;85.61719;946.5941;;;;
2019/07/22 04:19:57;;;;;;;11;9.9;;;;;;;17.29;84.94043;946.5778;;;;
2019/07/22 04:23:21;;;;;;;10.1;8.6;;;;;;;17.51;83.88184;946.5628;;;;
2019/07/22 04:26:46;;;;;;;13.1;8.9;;;;;;;17.32;84.55273;946.6429;;;;
2019/07/22 04:30:06;;;;;;;10.3;8.7;;;;;;;17.21;84.94727;946.6591;;;;
2019/07/22 04:33:21;;;;;;;11.3;10.1;;;;;;;17.5;83.62402;946.6925;;;;
2019/07/22 04:36:37;;;;;;;16.7;13;;;;;;;17.47;83.50195;946.6878;;;;
2019/07/22 04:39:58;;;;;;;13.8;10.2;;;;;;;17.39;83.98535;946.6998;;;;
2019/07/22 04:43:20;;;;;;;10.8;8.6;;;;;;;17.4;84.05664;946.7466;;;;
2019/07/22 04:46:36;;;;;;;9.2;8.2;;;;;;;17.47;83.79199;946.7651;;;;
2019/07/22 04:49:56;;;;;;;9.7;8.5;;;;;;;17.82;82.70898;946.745;;;;
2019/07/22 04:53:25;;;;;;;9.6;7.8;;;;;;;18.1;81.72852;946.8295;;;;
2019/07/22 04:56:42;;;;;;;7.9;7.1;;;;;;;18.34;80.72754;946.8201;;;;
2019/07/22 04:59:58;;;;;;;9;7.4;;;;;;;18.36;80.62402;946.7192;;;;
2019/07/22 05:03:19;;;;;;;10.5;7.3;;;;;;;18.4;80.59766;946.715;;;;
2019/07/22 05:06:50;;;;;;;11.4;6.9;;;;;;;18.36;80.78711;946.7322;;;;
2019/07/22 05:12:42;;;;;;;9.5;7.7;;;;;;;18.64;80.7334;946.7229;;;;
2019/07/22 05:29:17;;;;;;;7.3;5.8;;;;;;;20.28;73.3291;946.8309;;;;
2019/07/22 05:32:37;;;;;;;6.5;5.6;;;;;;;20.64;72.05859;946.7834;;;;
2019/07/22 05:36:02;;;;;;;8.1;5.3;;;;;;;20.6;71.05859;946.8615;;;;
2019/07/22 05:39:02;;;;;;;6.8;5.5;;;;;;;20.69;72.3584;946.8466;;;;
2019/07/22 05:42:20;;;;;;;9.9;5.5;;;;;;;21.11;71.06934;946.7438;;;;
2019/07/22 05:45:34;;;;;;;7.2;4.7;;;;;;;21.2;69.22363;946.7762;;;;
2019/07/22 05:48:48;;;;;;;6.3;4.8;;;;;;;22.39;66.85254;946.7877;;;;
2019/07/22 05:52:09;;;;;;;6;4.9;;;;;;;23.03;64.78711;946.8057;;;;
2019/07/22 05:55:25;;;;;;;10;6.2;;;;;;;23.36;63.00195;946.8696;;;;
2019/07/22 05:58:39;;;;;;;7.3;5.1;;;;;;;23.45;61.70801;946.8197;;;;
2019/07/22 06:02:05;;;;;;;8;5.3;;;;;;;23.56;60.3252;946.8178;;;;
2019/07/22 06:05:27;;;;;;;8.3;4.7;;;;;;;23.87;61.24902;946.8164;;;;
2019/07/22 06:08:47;;;;;;;7.2;4.1;;;;;;;24.02;58.48047;946.8519;;;;
2019/07/22 06:12:05;;;;;;;5.9;4.4;;;;;;;23.79;59.92188;946.8304;;;;
2019/07/22 06:15:23;;;;;;;5.4;4;;;;;;;24.38;58.18555;946.8169;;;;
2019/07/22 06:18:41;;;;;;;6.6;4;;;;;;;25.08;55.72754;946.7783;;;;
2019/07/22 06:21:56;;;;;;;5.1;4.1;;;;;;;25.68;54.67871;946.7255;;;;
2019/07/22 06:25:11;;;;;;;5.2;4;;;;;;;25.62;55.60547;946.8499;;;;
2019/07/22 06:28:33;;;;;;;4.4;3.9;;;;;;;25.84;56.55469;946.8845;;;;
2019/07/22 06:31:56;;;;;;;4.5;3.8;;;;;;;26.56;51.93262;946.8002;;;;
2019/07/22 06:35:17;;;;;;;4.2;3.8;;;;;;;27.73;51.17773;946.912;;;;
2019/07/22 06:38:30;;;;;;;4.5;3.9;;;;;;;27.8;49.86914;946.8834;;;;
2019/07/22 06:41:44;;;;;;;5.3;3.9;;;;;;;27.41;49.2793;946.8021;;;;
2019/07/22 06:45:01;;;;;;;4;3.6;;;;;;;26.81;51.41797;946.8409;;;;
2019/07/22 06:48:21;;;;;;;6.5;3.9;;;;;;;27.38;51.42285;946.7714;;;;
2019/07/22 06:51:39;;;;;;;6.3;3.8;;;;;;;27.67;48.83301;946.8506;;;;
2019/07/22 06:54:54;;;;;;;5.7;4.1;;;;;;;27.45;49.6748;946.8047;;;;
2019/07/22 06:58:32;;;;;;;5.4;3.9;;;;;;;27.47;49.10742;946.7631;;;;
2019/07/22 07:01:54;;;;;;;5;3.9;;;;;;;27.86;52.14355;946.8169;;;;
2019/07/22 07:05:15;;;;;;;4.7;3.6;;;;;;;27.87;50.17383;946.7896;;;;
2019/07/22 07:08:29;;;;;;;4.4;3.6;;;;;;;28.13;49.5127;946.7686;;;;
2019/07/22 07:11:58;;;;;;;5.1;3.9;;;;;;;28.56;46.61035;946.7997;;;;
2019/07/22 07:15:15;;;;;;;4.8;3.6;;;;;;;28.66;49.03613;946.7926;;;;
2019/07/22 07:18:31;;;;;;;4.2;3.8;;;;;;;29.54;46.30664;946.7355;;;;
2019/07/22 07:21:48;;;;;;;6;3.6;;;;;;;30.43;43.43555;946.6989;;;;
2019/07/22 07:25:04;;;;;;;7.8;3.7;;;;;;;30.38;41.73535;946.7155;;;;
2019/07/22 07:28:20;;;;;;;4.3;3.9;;;;;;;30.66;41.65332;946.6058;;;;
2019/07/22 07:31:35;;;;;;;6.9;3.9;;;;;;;30.36;41.81641;946.6981;;;;
2019/07/22 07:34:49;;;;;;;6.6;4;;;;;;;30.39;44.3877;946.6091;;;;
2019/07/22 07:38:08;;;;;;;4.3;3.5;;;;;;;32.71;40.73828;946.6434;;;;
2019/07/22 07:41:24;;;;;;;6.3;3.7;;;;;;;33.68;36.51855;946.5692;;;;
2019/07/22 07:44:44;;;;;;;4.2;3.3;;;;;;;34.36;33.57422;946.4882;;;;
2019/07/22 07:47:58;;;;;;;4.5;3.8;;;;;;;33.77;36.95898;946.5623;;;;
2019/07/22 07:51:21;;;;;;;7.1;4.1;;;;;;;32.81;37.8418;946.5739;;;;
2019/07/22 07:54:34;;;;;;;6.6;3.8;;;;;;;33.49;37.14063;946.4478;;;;
2019/07/22 07:57:52;;;;;;;5;3.7;;;;;;;33.23;38.62109;946.4698;;;;
2019/07/22 08:01:06;;;;;;;4.1;3.4;;;;;;;33.53;39.66992;946.4358;;;;
2019/07/22 08:04:22;;;;;;;4.7;3.5;;;;;;;33.17;36.53809;946.4277;;;;
2019/07/22 08:07:40;;;;;;;4.8;3.8;;;;;;;33.15;38.375;946.3788;;;;
2019/07/22 08:10:54;;;;;;;5.4;3.7;;;;;;;32.83;37.7002;946.4458;;;;
2019/07/22 08:14:08;;;;;;;5.1;3.8;;;;;;;32.62;36.61426;946.4292;;;;
2019/07/22 08:17:23;;;;;;;5.6;4;;;;;;;32.76;37.18945;946.4943;;;;
2019/07/22 08:20:40;;;;;;;4.9;3.9;;;;;;;32.61;38.28125;946.4662;;;;
2019/07/22 08:23:59;;;;;;;5.2;3.5;;;;;;;33.42;36.53418;946.4635;;;;
2019/07/22 08:27:15;;;;;;;5.9;3.6;;;;;;;32.82;37.32617;946.4695;;;;
2019/07/22 08:30:35;;;;;;;4;3.6;;;;;;;33.42;38.29004;946.4014;;;;
2019/07/22 08:33:52;;;;;;;5;3.7;;;;;;;34.18;34.63184;946.4807;;;;
2019/07/22 08:37:14;;;;;;;4.8;3.6;;;;;;;33.24;36.74707;946.416;;;;
2019/07/22 08:40:29;;;;;;;4.9;3.5;;;;;;;32.62;40.82617;946.4556;;;;
2019/07/22 08:43:46;;;;;;;6.2;3.4;;;;;;;33.79;35.33594;946.4485;;;;
2019/07/22 08:47:03;;;;;;;4.3;3.2;;;;;;;34.22;36.14063;946.3759;;;;
2019/07/22 08:50:20;;;;;;;4.8;3.1;;;;;;;33.9;36.54785;946.3191;;;;
2019/07/22 08:53:45;;;;;;;4.4;3.2;;;;;;;33.89;33.25;946.3786;;;;
2019/07/22 08:59:39;;;;;;;3.6;2.9;;;;;;;33.4;34.65723;946.3711;;;;
2019/07/22 09:02:53;;;;;;;5.7;3.3;;;;;;;32.85;39.42969;946.3814;;;;
2019/07/22 09:06:08;;;;;;;5.5;3.3;;;;;;;33.33;36.11816;946.3262;;;;
2019/07/22 09:09:24;;;;;;;5.5;3.2;;;;;;;33.32;37.22266;946.3499;;;;
2019/07/22 09:12:46;;;;;;;5.8;3.3;;;;;;;32.68;41.39551;946.3318;;;;
2019/07/22 09:16:02;;;;;;;5.9;3.4;;;;;;;31.94;39.14746;946.329;;;;
2019/07/22 09:19:16;;;;;;;3.5;2.9;;;;;;;32.61;41.16113;946.3303;;;;
2019/07/22 09:22:33;;;;;;;7.8;3.3;;;;;;;32.86;37.90527;946.3102;;;;
2019/07/22 09:25:49;;;;;;;5.1;3.1;;;;;;;32.78;39.81934;946.3583;;;;
2019/07/22 09:29:02;;;;;;;3.5;3;;;;;;;32.16;40.59277;946.363;;;;
2019/07/22 09:32:17;;;;;;;11.7;3.4;;;;;;;32;39.27246;946.337;;;;
2019/07/22 09:35:32;;;;;;;10.3;4;;;;;;;32.46;40.2002;946.3287;;;;
2019/07/22 09:38:46;;;;;;;6.6;3.3;;;;;;;32.62;40.95801;946.3145;;;;
2019/07/22 09:42:09;;;;;;;5;3.3;;;;;;;32.52;40.14453;946.2933;;;;
2019/07/22 09:45:28;;;;;;;4.6;3.3;;;;;;;32.75;39.44531;946.2541;;;;
2019/07/22 09:48:43;;;;;;;4.1;3.5;;;;;;;32.77;38.35547;946.2277;;;;
2019/07/22 09:52:02;;;;;;;3.9;3.3;;;;;;;32.46;39.04785;946.2377;;;;
2019/07/22 09:55:17;;;;;;;4.9;3.1;;;;;;;32.1;39.78418;946.2282;;;;
2019/07/22 09:58:38;;;;;;;6.1;3.4;;;;;;;31.68;41.98633;946.2101;;;;
2019/07/22 10:02:04;;;;;;;4.2;3.5;;;;;;;32.09;40.29883;946.269;;;;
2019/07/22 10:05:21;;;;;;;5;3.5;;;;;;;32.29;39.41699;946.2438;;;;
2019/07/22 10:08:38;;;;;;;6.4;3.5;;;;;;;32.47;39.03711;946.2404;;;;
2019/07/22 10:11:58;;;;;;;5.2;3.5;;;;;;;33.09;38.40527;946.2745;;;;
2019/07/22 10:15:17;;;;;;;6.7;3.6;;;;;;;32.96;39.34277;946.2401;;;;
2019/07/22 10:22:33;;;;;;;4.4;3.5;;;;;;;32.12;40.60156;946.2718;;;;
2019/07/22 10:25:49;;;;;;;4.8;3.5;;;;;;;31.65;41.18164;946.2112;;;;
2019/07/22 10:29:22;;;;;;;5;3.4;;;;;;;31.99;41.16602;946.2408;;;;
2019/07/22 10:32:37;;;;;;;4.4;3.6;;;;;;;32.18;40.09082;946.1704;;;;
2019/07/22 10:35:53;;;;;;;4.3;3.4;;;;;;;32.52;40.97363;946.1824;;;;
2019/07/22 10:39:09;;;;;;;3.8;3.2;;;;;;;32.66;39.14941;946.159;;;;
2019/07/22 10:42:25;;;;;;;4.3;3.3;;;;;;;32.24;39.84473;946.155;;;;
2019/07/22 10:45:42;;;;;;;5.1;3.2;;;;;;;32.85;39.06934;946.1359;;;;
2019/07/22 10:49:02;;;;;;;4.5;3.3;;;;;;;33.51;36.38574;946.1702;;;;
2019/07/22 10:52:19;;;;;;;7.3;4.4;;;;;;;34.07;36.80273;946.1704;;;;
2019/07/22 10:55:42;;;;;;;4.3;3.2;;;;;;;34.56;34.78125;946.114;;;;
2019/07/22 10:58:58;;;;;;;5.1;3.1;;;;;;;34.44;34.77246;946.1264;;;;
2019/07/22 11:02:30;;;;;;;4;3.2;;;;;;;34.6;35.53223;946.0051;;;;
2019/07/22 11:05:52;;;;;;;8.4;3.1;;;;;;;33.89;37.64355;946.0123;;;;
2019/07/22 11:09:07;;;;;;;6.9;3.2;;;;;;;33.67;38.08203;946.0192;;;;
2019/07/22 11:12:22;;;;;;;4.9;3.1;;;;;;;33.77;37.0791;946.0678;;;;
2019/07/22 11:15:40;;;;;;;4.1;3.4;;;;;;;33.16;37.35352;946.0605;;;;
2019/07/22 11:18:54;;;;;;;5.2;3.4;;;;;;;32.9;37.70508;946.0381;;;;
2019/07/22 11:22:10;;;;;;;5.5;3.6;;;;;;;32.58;39.3584;946.0056;;;;
2019/07/22 11:28:59;;;;;;;5.6;3.5;;;;;;;32.62;39.07422;945.9844;;;;
2019/07/22 11:32:15;;;;;;;5.3;3.3;;;;;;;32.24;39.41309;945.9531;;;;
2019/07/22 11:35:36;;;;;;;6.4;3.3;;;;;;;31.94;40.78809;945.89;;;;
2019/07/22 11:39:03;;;;;;;4;3.5;;;;;;;31.54;41.96191;946.0405;;;;
2019/07/22 11:42:24;;;;;;;4.5;3.6;;;;;;;30.89;42.05762;945.9803;;;;
2019/07/22 11:45:39;;;;;;;5.2;3.6;;;;;;;30.02;44.95996;945.9719;;;;
2019/07/22 11:48:56;;;;;;;3.9;3.4;;;;;;;30.68;43.2334;945.9402;;;;
2019/07/22 11:52:12;;;;;;;3.8;3.4;;;;;;;31.07;42.5166;946.0173;;;;
2019/07/22 12:00:30;;;;;;;6;3.6;;;;;;;31.31;41.47559;945.9192;;;;
2019/07/22 12:03:46;;;;;;;4.3;3.7;;;;;;;31.26;42.83301;945.8716;;;;
2019/07/22 12:07:01;;;;;;;5;3.7;;;;;;;31.08;42.50586;945.8752;;;;
2019/07/22 12:10:16;;;;;;;4.6;3.7;;;;;;;31.24;42.78418;945.932;;;;
2019/07/22 12:13:30;;;;;;;6.2;3.4;;;;;;;31.47;40.97461;945.9071;;;;
2019/07/22 12:16:50;;;;;;;3.8;3.2;;;;;;;31.6;41.5127;945.7403;;;;
2019/07/22 12:20:05;;;;;;;5.6;3.6;;;;;;;31.33;43.89453;945.7797;;;;
2019/07/22 12:23:22;;;;;;;6.3;3.8;;;;;;;31.06;44.46484;945.7381;;;;
2019/07/22 12:26:41;;;;;;;4.3;3.8;;;;;;;30.5;45.10254;945.7106;;;;
2019/07/22 12:29:55;;;;;;;4.9;3.8;;;;;;;30.41;45.47656;945.6846;;;;
2019/07/22 12:33:09;;;;;;;5.3;3.9;;;;;;;30.4;44.92578;945.6951;;;;
2019/07/22 12:36:25;;;;;;;5.5;3.7;;;;;;;30.93;44.90723;945.7054;;;;
2019/07/22 12:39:49;;;;;;;4.8;3.5;;;;;;;31.17;44.41602;945.715;;;;
2019/07/22 12:43:04;;;;;;;6.1;3.6;;;;;;;30.69;44.39258;945.6666;;;;
2019/07/22 12:46:22;;;;;;;5.8;3.6;;;;;;;30.57;44.66797;945.5888;;;;
2019/07/22 12:49:38;;;;;;;4.4;3.7;;;;;;;30.47;45.2666;945.6459;;;;
2019/07/22 12:52:52;;;;;;;4.4;3.6;;;;;;;30.57;46.26855;945.6467;;;;
2019/07/22 12:56:08;;;;;;;7;3.9;;;;;;;30.73;45.90332;945.6287;;;;
2019/07/22 12:59:26;;;;;;;5.7;4.1;;;;;;;30.67;45.0127;945.5862;;;;
2019/07/22 13:02:40;;;;;;;4.7;3.6;;;;;;;30.66;44.86816;945.4955;;;;
2019/07/22 13:05:55;;;;;;;6.7;3.9;;;;;;;30.06;45.44043;945.5851;;;;
2019/07/22 13:09:12;;;;;;;4.7;4;;;;;;;30.32;47.93945;945.551;;;;
2019/07/22 13:12:37;;;;;;;6.8;4;;;;;;;30.67;46.06445;945.5599;;;;
2019/07/22 13:15:51;;;;;;;4.7;3.8;;;;;;;30.57;44.42969;945.5809;;;;
2019/07/22 13:19:05;;;;;;;6;3.9;;;;;;;30.28;45.79785;945.5047;;;;
2019/07/22 13:22:29;;;;;;;4.6;3.7;;;;;;;30.41;44.80762;945.5189;;;;
2019/07/22 13:25:52;;;;;;;7.7;4;;;;;;;29.85;44.91895;945.4511;;;;
2019/07/22 13:29:14;;;;;;;6;4.2;;;;;;;29.66;46.5332;945.3765;;;;
2019/07/22 13:32:35;;;;;;;5.8;4;;;;;;;29.97;46.35156;945.3918;;;;
2019/07/22 13:36:02;;;;;;;6.2;3.9;;;;;;;30.36;45.56738;945.3383;;;;
2019/07/22 13:39:23;;;;;;;5.2;4;;;;;;;30.09;45.45605;945.3948;;;;
2019/07/22 13:42:40;;;;;;;5.2;3.9;;;;;;;30.37;46.09375;945.2581;;;;
2019/07/22 13:45:59;;;;;;;6.9;3.9;;;;;;;30.5;45.5459;945.3069;;;;
2019/07/22 13:49:13;;;;;;;6.1;3.9;;;;;;;30.37;46.58301;945.2976;;;;
2019/07/22 13:52:30;;;;;;;6.5;3.9;;;;;;;30.22;46.51953;945.308;;;;
2019/07/22 13:55:47;;;;;;;5.6;3.8;;;;;;;29.9;46.27148;945.2335;;;;
2019/07/22 13:59:05;;;;;;;4.7;4.1;;;;;;;29.75;46.10059;945.3499;;;;
2019/07/22 14:02:29;;;;;;;4.1;3.7;;;;;;;30.05;46.38379;945.3052;;;;
2019/07/22 14:05:45;;;;;;;5.1;3.9;;;;;;;30.16;44.91406;945.3047;;;;
2019/07/22 14:09:06;;;;;;;4.3;3.9;;;;;;;30.23;45.37402;945.2672;;;;
2019/07/22 14:12:33;;;;;;;5.5;3.9;;;;;;;30.19;45.04883;945.2656;;;;
2019/07/22 14:15:50;;;;;;;5.2;4.2;;;;;;;30.39;45.0918;945.2413;;;;
2019/07/22 14:19:04;;;;;;;5.9;3.8;;;;;;;30.59;43.11719;945.2614;;;;
2019/07/22 14:22:25;;;;;;;6.2;3.9;;;;;;;30.46;44.52539;945.2394;;;;
2019/07/22 14:25:49;;;;;;;6;3.9;;;;;;;30.32;44.64453;945.2263;;;;
2019/07/22 14:29:04;;;;;;;6.1;4;;;;;;;29.95;45.19238;945.2156;;;;
2019/07/22 14:32:23;;;;;;;4.9;3.7;;;;;;;29.84;45.21582;945.217;;;;
2019/07/22 14:35:39;;;;;;;4.1;3.7;;;;;;;29.93;44.80664;945.1981;;;;
2019/07/22 14:39:03;;;;;;;6.3;3.9;;;;;;;30.01;44.49316;945.1622;;;;
2019/07/22 14:46:27;;;;;;;6.2;3.8;;;;;;;30.18;44.49805;945.0999;;;;
2019/07/22 14:49:48;;;;;;;15.3;4.8;;;;;;;30.09;44.56152;945.1149;;;;
2019/07/22 14:53:13;;;;;;;17.8;4.6;;;;;;;30.06;46.02637;945.1067;;;;
2019/07/22 14:56:29;;;;;;;12.6;4.5;;;;;;;29.88;45.19727;945.0611;;;;
2019/07/22 14:59:46;;;;;;;8;4.1;;;;;;;30;45.0293;945.0503;;;;
2019/07/22 15:03:00;;;;;;;12.4;4.5;;;;;;;29.66;44.70898;945.031;;;;
2019/07/22 15:06:15;;;;;;;10;4.3;;;;;;;29.04;45.45703;944.9807;;;;
2019/07/22 15:09:32;;;;;;;10.1;4.3;;;;;;;28.87;46.41699;945.0333;;;;
2019/07/22 15:12:47;;;;;;;6.6;4.3;;;;;;;28.75;46.28516;945.048;;;;
2019/07/22 15:16:02;;;;;;;8.2;4.6;;;;;;;28.62;46.68848;945.1075;;;;
2019/07/22 15:19:28;;;;;;;7.1;4.1;;;;;;;28.16;46.64063;945.0773;;;;
2019/07/22 15:22:51;;;;;;;10.1;4.2;;;;;;;28.64;48.10645;945.1344;;;;
2019/07/22 15:30:27;;;;;;;10.2;4.3;;;;;;;28.78;46.65625;945.0472;;;;
2019/07/22 15:33:49;;;;;;;7.7;3.9;;;;;;;28.74;46.36816;945.0139;;;;
2019/07/22 15:37:08;;;;;;;7.7;4.3;;;;;;;28.71;46.8877;944.9662;;;;
2019/07/22 15:40:26;;;;;;;12.6;4.2;;;;;;;28.75;47.59375;945.048;;;;
2019/07/22 15:43:46;;;;;;;19.3;4.7;;;;;;;28.92;46.75488;945.0391;;;;
2019/07/22 15:47:08;;;;;;;17.4;4.8;;;;;;;28.89;46.01367;945.044;;;;
2019/07/22 15:50:26;;;;;;;8.5;4.3;;;;;;;29.04;46.79102;944.9767;;;;
2019/07/22 15:53:40;;;;;;;7.7;4.1;;;;;;;28.87;46.61914;944.9455;;;;
2019/07/22 15:56:59;;;;;;;14.8;4.2;;;;;;;28.91;47.84961;944.9302;;;;
2019/07/22 16:00:28;;;;;;;9.7;4.4;;;;;;;28.9;47.38379;944.8105;;;;
2019/07/22 16:03:47;;;;;;;6.1;4.3;;;;;;;28.99;47.5;944.8262;;;;
2019/07/22 16:07:01;;;;;;;7;4.3;;;;;;;29;47.50098;944.9247;;;;
2019/07/22 16:10:16;;;;;;;10.8;4.2;;;;;;;28.96;47.73535;944.7825;;;;
2019/07/22 16:13:43;;;;;;;5.8;4.2;;;;;;;28.74;46.98633;944.8171;;;;
2019/07/22 16:17:04;;;;;;;6.7;4.1;;;;;;;28.81;47.55273;944.78;;;;
2019/07/22 16:20:31;;;;;;;5.9;4.5;;;;;;;28.62;47.6875;944.8309;;;;
2019/07/22 16:23:50;;;;;;;5.8;4.2;;;;;;;28.46;48.20605;944.843;;;;
2019/07/22 16:27:05;;;;;;;5.7;4;;;;;;;28.41;48.17676;944.7896;;;;
2019/07/22 16:30:26;;;;;;;4.7;4.1;;;;;;;28.49;48.23242;944.8212;;;;
2019/07/22 16:33:41;;;;;;;6.8;4.4;;;;;;;28.58;49.05078;944.7949;;;;
2019/07/22 16:37:06;;;;;;;6.4;4.1;;;;;;;28.24;47.78906;944.7603;;;;
2019/07/22 16:40:23;;;;;;;5.9;4;;;;;;;28.16;47.41309;944.7628;;;;
2019/07/22 16:43:40;;;;;;;4.5;3.8;;;;;;;28.2;48.08203;944.753;;;;
2019/07/22 16:46:56;;;;;;;5.2;4;;;;;;;28.2;48.34473;944.6783;;;;
2019/07/22 16:50:17;;;;;;;5.9;4.2;;;;;;;28.1;48.6543;944.733;;;;
2019/07/22 16:53:34;;;;;;;7.9;4.2;;;;;;;28.02;49.4541;944.7145;;;;
2019/07/22 16:57:12;;;;;;;5.7;4.3;;;;;;;28.04;48.90918;944.7294;;;;
2019/07/22 17:00:31;;;;;;;7.5;4.1;;;;;;;28.08;50.10156;944.7981;;;;
2019/07/22 17:03:45;;;;;;;5.8;4.3;;;;;;;27.93;51.2373;944.764;;;;
2019/07/22 17:07:01;;;;;;;4.5;3.9;;;;;;;27.93;50.29883;944.7458;;;;
2019/07/22 17:10:22;;;;;;;5.7;4.3;;;;;;;27.87;50.86133;944.7683;;;;
2019/07/22 17:13:38;;;;;;;5.5;4.1;;;;;;;27.8;50.46191;944.7576;;;;
2019/07/22 17:16:55;;;;;;;5.3;4.7;;;;;;;27.54;51.63086;944.806;;;;
2019/07/22 17:20:12;;;;;;;7;4.7;;;;;;;27.64;51.66699;944.8649;;;;
2019/07/22 17:23:27;;;;;;;8;4.9;;;;;;;27.74;52.0459;944.8717;;;;
2019/07/22 17:26:43;;;;;;;11.9;5;;;;;;;27.39;55.87305;944.9327;;;;
2019/07/22 17:30:05;;;;;;;6.8;4.9;;;;;;;27.25;57.39648;944.9547;;;;
2019/07/22 17:33:24;;;;;;;6.5;4.9;;;;;;;27.18;57.67188;944.8692;;;;
2019/07/22 17:36:43;;;;;;;6.9;4.7;;;;;;;26.98;56.20117;944.8594;;;;
2019/07/22 17:40:01;;;;;;;5.2;4.4;;;;;;;27.01;55.63672;944.7636;;;;
2019/07/22 17:43:18;;;;;;;6.4;4.3;;;;;;;27.03;56.36133;944.8215;;;;
2019/07/22 17:46:35;;;;;;;8.5;4.8;;;;;;;26.95;57.9043;944.8589;;;;
2019/07/22 17:49:57;;;;;;;5.9;4.8;;;;;;;26.72;59.61523;944.855;;;;
2019/07/22 17:53:16;;;;;;;8.5;5.2;;;;;;;26.54;61.25977;944.9292;;;;
2019/07/22 17:56:30;;;;;;;6.2;5.5;;;;;;;26.33;62.22559;944.916;;;;
2019/07/22 17:59:46;;;;;;;7.6;5.9;;;;;;;26.03;63.11914;944.9164;;;;
2019/07/22 18:03:02;;;;;;;10.9;6.7;;;;;;;26.01;62.80859;944.8752;;;;
2019/07/22 18:06:17;;;;;;;8.5;6.1;;;;;;;25.93;62.92773;944.8262;;;;
2019/07/22 18:09:35;;;;;;;8.3;6.8;;;;;;;26.02;60.17285;944.8781;;;;
2019/07/22 18:12:53;;;;;;;6;5.4;;;;;;;25.98;60.83008;944.8666;;;;
2019/07/22 18:16:07;;;;;;;8;5.2;;;;;;;25.97;59.89355;944.8599;;;;
2019/07/22 18:19:24;;;;;;;7.9;5;;;;;;;25.89;60.39258;944.9272;;;;
2019/07/22 18:22:39;;;;;;;8.1;5.5;;;;;;;25.98;59.0791;944.9501;;;;
2019/07/22 18:25:56;;;;;;;8.6;5.4;;;;;;;25.89;59.42285;944.9755;;;;
2019/07/22 18:29:12;;;;;;;10.5;5.1;;;;;;;26.01;60.10059;944.9928;;;;
2019/07/22 18:32:28;;;;;;;7;5.4;;;;;;;26.02;59.56934;944.9604;;;;
2019/07/22 18:35:40;;;;;;;8.7;5.7;;;;;;;25.91;60.9043;944.959;;;;
2019/07/22 18:38:54;;;;;;;9.8;5.6;;;;;;;25.74;62.35742;945.0184;;;;
2019/07/22 18:42:07;;;;;;;8.8;5.4;;;;;;;25.58;59.86523;944.9769;;;;
2019/07/22 18:45:24;;;;;;;5.5;4.9;;;;;;;25.53;60.96973;945.0398;;;;
2019/07/22 18:48:38;;;;;;;7.9;6.2;;;;;;;25.33;60.74219;945.0421;;;;
2019/07/22 18:51:54;;;;;;;6.1;5.3;;;;;;;25.05;61.46973;945.1354;;;;
2019/07/22 18:55:11;;;;;;;6.3;5.7;;;;;;;24.97;63.53516;945.0895;;;;
2019/07/22 18:58:32;;;;;;;9.5;6;;;;;;;24.93;63.34082;945.1602;;;;
2019/07/22 19:01:52;;;;;;;9.6;6.1;;;;;;;24.87;63.28613;945.2329;;;;
2019/07/22 19:05:08;;;;;;;7.2;5.4;;;;;;;24.79;62.99023;945.1974;;;;
2019/07/22 19:08:22;;;;;;;8.2;5.2;;;;;;;24.69;63.56738;945.2975;;;;
2019/07/22 19:11:35;;;;;;;10.9;6.4;;;;;;;24.39;64.71484;945.2566;;;;
2019/07/22 19:14:49;;;;;;;6.9;5.8;;;;;;;24.2;64.93457;945.3215;;;;
2019/07/22 19:18:02;;;;;;;8.4;5.9;;;;;;;24.1;64.77734;945.3924;;;;
2019/07/22 19:21:18;;;;;;;9;6.1;;;;;;;23.98;65.03125;945.3688;;;;
2019/07/22 19:24:33;;;;;;;7.5;5.7;;;;;;;23.94;64.96777;945.4222;;;;
2019/07/22 19:27:48;;;;;;;6.2;5.6;;;;;;;23.85;65.22461;945.4517;;;;
2019/07/22 19:31:06;;;;;;;8.1;5.9;;;;;;;23.76;64.83398;945.4951;;;;
2019/07/22 19:34:31;;;;;;;7.6;5.6;;;;;;;23.72;65.76953;945.5653;;;;
2019/07/22 19:37:49;;;;;;;7.8;5.7;;;;;;;23.57;65.83105;945.5547;;;;
2019/07/22 19:41:17;;;;;;;12.5;6.6;;;;;;;23.3;66.30762;945.6383;;;;
2019/07/22 19:44:34;;;;;;;8.7;7.4;;;;;;;23.01;68.41504;945.6415;;;;
2019/07/22 19:47:48;;;;;;;9.7;7.7;;;;;;;22.96;68.3125;945.6797;;;;
2019/07/22 19:51:05;;;;;;;7.6;6.3;;;;;;;22.88;67.97266;945.7197;;;;
2019/07/22 19:54:45;;;;;;;9.5;6.9;;;;;;;22.73;67.5498;945.7733;;;;
2019/07/22 19:57:59;;;;;;;8.4;6.7;;;;;;;22.72;67.79395;945.8144;;;;
2019/07/22 20:01:23;;;;;;;10.4;6.5;;;;;;;22.7;67.15723;945.7953;;;;
2019/07/22 20:04:46;;;;;;;8.6;6.8;;;;;;;22.42;68.39355;945.8058;;;;
2019/07/22 20:08:02;;;;;;;8.1;7.4;;;;;;;22.18;69.50684;945.8103;;;;
2019/07/22 20:11:29;;;;;;;9.7;7.6;;;;;;;22.23;68.82129;945.7958;;;;
2019/07/22 20:14:48;;;;;;;8.9;7.4;;;;;;;22.24;68.90527;945.8117;;;;
2019/07/22 20:18:18;;;;;;;10.9;7.5;;;;;;;22.24;68.88281;945.7637;;;;
2019/07/22 20:21:42;;;;;;;10;7.6;;;;;;;22.22;69.46484;945.7885;;;;
2019/07/22 20:24:58;;;;;;;9.1;7.3;;;;;;;22.18;69.17676;945.7673;;;;
2019/07/22 20:28:22;;;;;;;15.6;11.7;;;;;;;22.3;69.19629;945.665;;;;
2019/07/22 20:31:47;;;;;;;18.4;12.6;;;;;;;22.27;69.69629;945.7209;;;;
2019/07/22 20:35:03;;;;;;;11.5;8.8;;;;;;;22.36;69.28711;945.7619;;;;
2019/07/22 20:38:22;;;;;;;9.3;7.1;;;;;;;22.41;69.40137;945.8108;;;;
2019/07/22 20:41:39;;;;;;;13.1;7.7;;;;;;;22.38;69.60742;945.8187;;;;
2019/07/22 20:44:57;;;;;;;9.4;7.9;;;;;;;22.32;69.8457;945.8527;;;;
2019/07/22 20:48:15;;;;;;;11.4;7.8;;;;;;;22.26;70.26953;945.8647;;;;